createdAt,value
2019-03-28T00:00:09.679Z,31.10
2019-03-28T00:02:43.624Z,33.10
2019-03-28T00:05:14.695Z,35.23
2019-03-28T00:07:45.794Z,36.03
2019-03-28T00:10:16.817Z,36.10
2019-03-28T00:12:47.849Z,36.77
2019-03-28T00:15:18.977Z,35.53
2019-03-28T00:17:50.169Z,34.83
2019-03-28T00:20:21.324Z,37.10
2019-03-28T00:23:01.194Z,37.50
2019-03-28T00:25:32.350Z,34.53
2019-03-28T00:28:04.864Z,34.67
2019-03-28T00:30:35.935Z,34.70
2019-03-28T00:33:07.042Z,32.47
2019-03-28T00:35:38.151Z,32.97
2019-03-28T00:38:09.388Z,33.53
2019-03-28T00:40:40.499Z,33.10
2019-03-28T00:43:12.790Z,35.10
2019-03-28T00:45:44.654Z,34.13
2019-03-28T00:48:15.956Z,33.77
2019-03-28T00:50:47.024Z,35.87
2019-03-28T00:53:18.048Z,37.17
2019-03-28T00:55:49.248Z,36.73
2019-03-28T00:58:20.348Z,37.13
2019-03-28T01:00:53.013Z,36.67
2019-03-28T01:03:24.081Z,35.03
2019-03-28T01:05:55.336Z,34.37
2019-03-28T01:08:26.395Z,33.07
2019-03-28T01:10:57.489Z,33.67
2019-03-28T01:13:28.653Z,32.53
2019-03-28T01:15:59.827Z,30.30
2019-03-28T01:18:31.047Z,31.87
2019-03-28T01:21:02.261Z,29.73
2019-03-28T01:23:33.346Z,30.53
2019-03-28T01:26:04.371Z,31.07
2019-03-28T01:28:35.495Z,32.17
2019-03-28T01:31:06.671Z,29.70
2019-03-28T01:33:38.685Z,29.93
2019-03-28T01:36:09.716Z,29.13
2019-03-28T01:38:40.759Z,27.97
2019-03-28T01:41:11.867Z,29.37
2019-03-28T01:43:42.925Z,28.83
2019-03-28T01:46:13.986Z,28.60
2019-03-28T01:48:45.020Z,29.63
2019-03-28T01:51:16.078Z,28.03
2019-03-28T01:53:48.156Z,27.37
2019-03-28T01:56:19.280Z,27.93
2019-03-28T01:58:50.296Z,25.30
2019-03-28T02:01:21.367Z,27.33
2019-03-28T02:03:52.464Z,28.73
2019-03-28T02:06:23.508Z,27.67
2019-03-28T02:08:54.574Z,28.70
2019-03-28T02:11:25.655Z,29.23
2019-03-28T02:13:57.652Z,27.23
2019-03-28T02:16:28.772Z,28.23
2019-03-28T02:18:59.798Z,27.90
2019-03-28T02:21:31.056Z,27.27
2019-03-28T02:24:02.052Z,27.90
2019-03-28T02:26:33.150Z,27.10
2019-03-28T02:29:04.236Z,26.93
2019-03-28T02:31:35.308Z,27.90
2019-03-28T02:34:06.399Z,27.17
2019-03-28T02:36:37.494Z,27.43
2019-03-28T02:39:08.664Z,26.83
2019-03-28T02:41:39.692Z,26.77
2019-03-28T02:44:11.897Z,25.13
2019-03-28T02:46:43.220Z,28.87
2019-03-28T02:49:14.339Z,28.57
2019-03-28T02:51:45.456Z,27.63
2019-03-28T02:54:16.620Z,26.47
2019-03-28T02:56:47.702Z,28.33
2019-03-28T02:59:18.769Z,26.57
2019-03-28T03:01:50.942Z,26.57
2019-03-28T03:04:22.116Z,25.73
2019-03-28T03:06:53.422Z,24.40
2019-03-28T03:09:25.638Z,25.83
2019-03-28T03:11:56.882Z,24.27
2019-03-28T03:14:28.025Z,24.97
2019-03-28T03:16:59.023Z,24.90
2019-03-28T03:19:30.132Z,24.70
2019-03-28T03:22:04.925Z,26.30
2019-03-28T03:24:37.037Z,25.83
2019-03-28T03:27:07.989Z,24.77
2019-03-28T03:29:39.020Z,25.40
2019-03-28T03:32:10.019Z,25.47
2019-03-28T03:34:41.053Z,24.63
2019-03-28T03:37:12.042Z,25.53
2019-03-28T03:39:43.057Z,24.87
2019-03-28T03:42:14.117Z,24.43
2019-03-28T03:44:45.138Z,27.70
2019-03-28T03:47:16.208Z,26.73
2019-03-28T03:49:47.213Z,23.40
2019-03-28T03:52:18.192Z,24.00
2019-03-28T03:54:49.225Z,23.93
2019-03-28T03:57:20.262Z,23.70
2019-03-28T03:59:51.444Z,23.93
2019-03-28T04:02:22.472Z,24.00
2019-03-28T04:04:56.717Z,23.07
2019-03-28T04:07:26.306Z,23.70
2019-03-28T04:09:57.511Z,25.43
2019-03-28T04:12:28.570Z,25.37
2019-03-28T04:14:59.650Z,25.87
2019-03-28T04:17:30.810Z,27.03
2019-03-28T04:20:01.850Z,27.87
2019-03-28T04:22:33.051Z,27.07
2019-03-28T04:25:04.270Z,26.07
2019-03-28T04:27:35.279Z,27.63
2019-03-28T04:30:06.710Z,28.10
2019-03-28T04:32:37.859Z,27.07
2019-03-28T04:35:08.897Z,27.10
2019-03-28T04:37:40.079Z,26.17
2019-03-28T04:40:11.377Z,26.73
2019-03-28T04:42:45.718Z,26.40
2019-03-28T04:45:17.780Z,24.63
2019-03-28T04:47:48.870Z,24.60
2019-03-28T04:50:19.935Z,24.33
2019-03-28T04:52:52.860Z,24.77
2019-03-28T04:55:23.705Z,25.87
2019-03-28T04:57:55.412Z,24.43
2019-03-28T05:00:26.607Z,21.53
2019-03-28T05:02:57.826Z,23.43
2019-03-28T05:05:28.864Z,23.77
2019-03-28T05:07:59.977Z,24.20
2019-03-28T05:10:33.121Z,24.20
2019-03-28T05:13:03.835Z,23.13
2019-03-28T05:15:34.901Z,31.00
2019-03-28T05:18:06.377Z,24.87
2019-03-28T05:20:37.503Z,27.27
2019-03-28T05:23:08.717Z,24.93
2019-03-28T05:25:39.791Z,25.23
2019-03-28T05:28:10.828Z,25.77
2019-03-28T05:30:41.900Z,27.90
2019-03-28T05:33:12.919Z,27.17
2019-03-28T05:35:43.971Z,25.43
2019-03-28T05:38:15.057Z,24.77
2019-03-28T05:40:46.194Z,26.33
2019-03-28T05:43:17.308Z,26.17
2019-03-28T05:45:48.474Z,25.63
2019-03-28T05:48:19.504Z,24.63
2019-03-28T05:50:50.590Z,24.43
2019-03-28T05:53:21.696Z,26.23
2019-03-28T05:55:52.812Z,25.17
2019-03-28T05:58:23.875Z,27.00
2019-03-28T06:00:54.888Z,26.97
2019-03-28T06:03:25.916Z,26.67
2019-03-28T06:05:57.142Z,24.70
2019-03-28T06:08:28.300Z,25.77
2019-03-28T06:10:59.515Z,22.77
2019-03-28T06:13:30.516Z,23.87
2019-03-28T06:16:01.566Z,25.90
2019-03-28T06:18:32.660Z,26.83
2019-03-28T06:21:03.756Z,25.77
2019-03-28T06:23:34.856Z,25.73
2019-03-28T06:26:05.919Z,25.40
2019-03-28T06:28:43.720Z,24.03
2019-03-28T06:31:15.042Z,24.20
2019-03-28T06:33:46.115Z,25.47
2019-03-28T06:36:17.401Z,25.87
2019-03-28T06:38:48.618Z,24.73
2019-03-28T06:41:20.023Z,24.40
2019-03-28T06:43:50.935Z,23.07
2019-03-28T06:46:21.983Z,25.17
2019-03-28T06:48:54.166Z,23.90
2019-03-28T06:51:25.284Z,23.13
2019-03-28T06:53:57.244Z,24.37
2019-03-28T06:56:28.584Z,23.77
2019-03-28T06:58:59.869Z,24.30
2019-03-28T07:01:31.091Z,23.77
2019-03-28T07:04:02.449Z,21.83
2019-03-28T07:06:35.367Z,24.20
2019-03-28T07:09:09.195Z,24.90
2019-03-28T07:11:40.751Z,24.90
2019-03-28T07:14:12.045Z,22.97
2019-03-28T07:16:43.293Z,24.47
2019-03-28T07:19:14.571Z,34.30
2019-03-28T07:21:45.893Z,23.07
2019-03-28T07:24:17.052Z,21.30
2019-03-28T07:26:48.295Z,22.77
2019-03-28T07:29:19.338Z,21.53
2019-03-28T07:31:51.611Z,21.47
2019-03-28T07:34:22.687Z,21.33
2019-03-28T07:36:53.942Z,21.37
2019-03-28T07:39:25.078Z,21.47
2019-03-28T07:41:56.176Z,19.17
2019-03-28T07:44:27.372Z,19.93
2019-03-28T07:46:58.655Z,22.70
2019-03-28T07:49:29.862Z,21.77
2019-03-28T07:52:01.487Z,21.73
2019-03-28T07:54:32.788Z,26.70
2019-03-28T07:57:03.843Z,19.40
2019-03-28T07:59:35.210Z,20.63
2019-03-28T08:02:06.406Z,20.00
2019-03-28T08:04:37.478Z,19.30
2019-03-28T08:07:08.634Z,20.13
2019-03-28T08:09:39.669Z,18.83
2019-03-28T08:12:21.807Z,19.23
2019-03-28T08:14:43.739Z,18.00
2019-03-28T08:17:14.980Z,16.00
2019-03-28T08:19:46.228Z,18.33
2019-03-28T08:22:17.367Z,18.30
2019-03-28T08:24:48.577Z,22.77
2019-03-28T08:27:19.637Z,18.20
2019-03-28T08:29:50.796Z,18.13
2019-03-28T08:32:24.961Z,17.03
2019-03-28T08:34:56.570Z,19.87
2019-03-28T08:37:28.079Z,18.30
2019-03-28T08:39:59.684Z,17.47
2019-03-28T08:42:30.853Z,17.80
2019-03-28T08:45:02.065Z,17.77
2019-03-28T08:47:33.309Z,17.63
2019-03-28T08:50:04.691Z,19.20
2019-03-28T08:52:35.980Z,19.07
2019-03-28T08:55:10.009Z,19.87
2019-03-28T08:57:40.521Z,18.53
2019-03-28T09:00:16.351Z,19.63
2019-03-28T09:02:45.787Z,19.00
2019-03-28T09:05:17.057Z,19.00
2019-03-28T09:07:48.453Z,19.97
2019-03-28T09:10:19.812Z,19.90
2019-03-28T09:12:51.367Z,20.80
2019-03-28T09:15:24.302Z,22.80
2019-03-28T09:17:55.572Z,21.53
2019-03-28T09:20:26.759Z,21.70
2019-03-28T09:22:58.064Z,22.00
2019-03-28T09:25:29.266Z,20.30
2019-03-28T09:28:00.356Z,22.30
2019-03-28T09:30:48.655Z,21.20
2019-03-28T09:33:14.943Z,21.20
2019-03-28T09:35:46.283Z,22.60
2019-03-28T09:38:17.732Z,21.03
2019-03-28T09:40:49.023Z,21.63
2019-03-28T09:43:20.227Z,21.77
2019-03-28T09:45:51.403Z,21.70
2019-03-28T09:48:22.446Z,21.20
2019-03-28T09:50:53.797Z,21.73
2019-03-28T09:53:24.982Z,44.83
2019-03-28T09:55:56.057Z,22.20
2019-03-28T09:58:27.531Z,22.37
2019-03-28T10:01:03.104Z,22.30
2019-03-28T10:03:31.677Z,23.43
2019-03-28T10:06:04.501Z,22.27
2019-03-28T10:08:35.697Z,20.87
2019-03-28T10:11:06.962Z,22.03
2019-03-28T10:13:38.509Z,20.47
2019-03-28T10:16:09.776Z,20.27
2019-03-28T10:18:41.142Z,20.50
2019-03-28T10:21:12.509Z,21.17
2019-03-28T10:23:44.440Z,21.07
2019-03-28T10:26:16.283Z,20.37
2019-03-28T10:28:47.912Z,20.10
2019-03-28T10:31:19.281Z,20.73
2019-03-28T10:33:51.051Z,21.50
2019-03-28T10:36:22.165Z,21.30
2019-03-28T10:38:53.384Z,23.40
2019-03-28T10:41:25.988Z,20.47
2019-03-28T10:43:57.506Z,22.60
2019-03-28T10:46:28.622Z,20.80
2019-03-28T10:49:00.156Z,20.97
2019-03-28T10:51:31.177Z,20.40
2019-03-28T10:54:02.379Z,20.90
2019-03-28T10:56:33.418Z,21.03
2019-03-28T10:59:04.817Z,21.50
2019-03-28T11:01:48.085Z,21.83
2019-03-28T11:04:08.802Z,21.77
2019-03-28T11:06:40.212Z,20.30
2019-03-28T11:09:11.457Z,20.77
2019-03-28T11:11:42.824Z,20.73
2019-03-28T11:14:14.196Z,20.33
2019-03-28T11:16:48.204Z,20.70
2019-03-28T11:19:18.482Z,20.27
2019-03-28T11:21:49.869Z,20.73
2019-03-28T11:24:20.918Z,20.53
2019-03-28T11:26:52.603Z,20.43
2019-03-28T11:29:24.073Z,19.53
2019-03-28T11:31:55.349Z,21.07
2019-03-28T11:34:26.514Z,20.90
2019-03-28T11:36:58.517Z,20.83
2019-03-28T11:39:29.797Z,20.40
2019-03-28T11:42:01.993Z,18.73
2019-03-28T11:44:33.567Z,20.83
2019-03-28T11:47:04.799Z,21.00
2019-03-28T11:49:36.239Z,21.23
2019-03-28T11:52:07.312Z,19.33
2019-03-28T11:54:38.673Z,20.30
2019-03-28T11:57:09.742Z,19.70
2019-03-28T11:59:41.168Z,19.23
2019-03-28T12:02:19.644Z,19.97
2019-03-28T12:04:44.946Z,17.30
2019-03-28T12:07:16.090Z,17.90
2019-03-28T12:09:47.484Z,18.97
2019-03-28T12:12:18.455Z,17.97
2019-03-28T12:14:49.570Z,18.50
2019-03-28T12:17:20.565Z,18.53
2019-03-28T12:19:51.922Z,17.93
2019-03-28T12:22:23.495Z,18.57
2019-03-28T12:24:54.969Z,18.97
2019-03-28T12:27:26.263Z,19.47
2019-03-28T12:29:57.581Z,17.10
2019-03-28T12:32:28.794Z,17.30
2019-03-28T12:35:00.377Z,17.17
2019-03-28T12:37:31.603Z,14.43
2019-03-28T12:40:02.981Z,12.77
2019-03-28T12:42:34.443Z,14.50
2019-03-28T12:45:07.255Z,12.40
2019-03-28T12:47:42.566Z,11.57
2019-03-28T12:50:12.357Z,10.57
2019-03-28T12:52:44.872Z,10.50
2019-03-28T12:55:16.971Z,8.23
2019-03-28T12:57:48.555Z,8.87
2019-03-28T13:00:24.763Z,8.00
2019-03-28T13:02:56.046Z,8.50
2019-03-28T13:05:28.022Z,9.67
2019-03-28T13:07:59.311Z,12.37
2019-03-28T13:10:30.663Z,9.40
2019-03-28T13:13:01.891Z,7.87
2019-03-28T13:15:32.922Z,7.50
2019-03-28T13:18:04.399Z,8.20
2019-03-28T13:20:35.666Z,8.67
2019-03-28T13:23:06.767Z,9.07
2019-03-28T13:25:37.961Z,8.33
2019-03-28T13:28:09.213Z,9.70
2019-03-28T13:30:40.507Z,9.77
2019-03-28T13:33:12.141Z,8.20
2019-03-28T13:35:43.346Z,9.50
2019-03-28T13:38:14.830Z,9.00
2019-03-28T13:40:46.085Z,9.13
2019-03-28T13:43:17.242Z,9.93
2019-03-28T13:45:48.644Z,9.97
2019-03-28T13:48:20.807Z,9.40
2019-03-28T13:50:54.685Z,9.57
2019-03-28T13:53:38.283Z,10.37
2019-03-28T13:55:58.444Z,14.67
2019-03-28T13:58:29.695Z,11.77
2019-03-28T14:01:00.954Z,9.93
2019-03-28T14:03:32.452Z,11.20
2019-03-28T14:06:03.868Z,12.53
2019-03-28T14:08:34.869Z,9.33
2019-03-28T14:11:06.174Z,9.53
2019-03-28T14:13:37.198Z,10.27
2019-03-28T14:16:08.449Z,9.10
2019-03-28T14:18:39.549Z,9.90
2019-03-28T14:21:10.753Z,10.03
2019-03-28T14:23:42.244Z,9.20
2019-03-28T14:26:13.353Z,8.73
2019-03-28T14:28:44.532Z,8.47
2019-03-28T14:31:16.647Z,10.40
2019-03-28T14:33:47.949Z,11.30
2019-03-28T14:36:19.161Z,11.27
2019-03-28T14:38:50.721Z,14.73
2019-03-28T14:41:22.537Z,22.57
2019-03-28T14:43:53.727Z,16.83
2019-03-28T14:46:25.122Z,11.27
2019-03-28T14:48:56.395Z,12.83
2019-03-28T14:51:27.508Z,10.60
2019-03-28T14:53:58.728Z,10.70
2019-03-28T14:56:30.059Z,11.90
2019-03-28T14:59:02.238Z,10.73
2019-03-28T15:01:33.807Z,9.77
2019-03-28T15:04:05.149Z,9.57
2019-03-28T15:06:36.997Z,8.90
2019-03-28T15:09:09.840Z,9.43
2019-03-28T15:11:41.266Z,8.37
2019-03-28T15:14:12.807Z,10.23
2019-03-28T15:16:43.882Z,8.43
2019-03-28T15:19:14.990Z,8.73
2019-03-28T15:21:46.146Z,8.97
2019-03-28T15:24:17.572Z,10.43
2019-03-28T15:26:48.653Z,12.23
2019-03-28T15:29:19.990Z,11.63
2019-03-28T15:31:51.278Z,9.60
2019-03-28T15:34:22.503Z,22.43
2019-03-28T15:36:53.887Z,10.97
2019-03-28T15:39:25.477Z,9.87
2019-03-28T15:41:56.659Z,10.23
2019-03-28T15:44:27.945Z,10.47
2019-03-28T15:46:59.715Z,12.27
2019-03-28T15:49:30.911Z,10.83
2019-03-28T15:52:03.386Z,10.97
2019-03-28T15:54:35.887Z,11.20
2019-03-28T15:57:07.462Z,9.80
2019-03-28T15:59:38.621Z,10.30
2019-03-28T16:02:10.005Z,10.20
2019-03-28T16:04:41.212Z,19.83
2019-03-28T16:07:12.333Z,11.60
2019-03-28T16:09:43.725Z,29.77
2019-03-28T16:12:14.768Z,20.67
2019-03-28T16:14:45.925Z,48.50
2019-03-28T16:17:17.209Z,41.93
2019-03-28T16:19:48.480Z,23.37
2019-03-28T16:22:19.697Z,13.03
2019-03-28T16:24:51.833Z,18.70
2019-03-28T16:27:23.200Z,18.83
2019-03-28T16:29:54.581Z,70.07
2019-03-28T16:32:25.975Z,16.03
2019-03-28T16:34:57.404Z,14.40
2019-03-28T16:37:28.564Z,12.30
2019-03-28T16:39:59.812Z,10.90
2019-03-28T16:42:31.134Z,9.77
2019-03-28T16:45:05.109Z,9.67
2019-03-28T16:47:39.089Z,9.93
2019-03-28T16:50:10.610Z,8.73
2019-03-28T16:52:42.009Z,10.07
2019-03-28T16:55:25.831Z,10.13
2019-03-28T16:57:46.423Z,11.83
2019-03-28T17:00:18.608Z,10.70
2019-03-28T17:02:49.948Z,10.67
2019-03-28T17:05:21.032Z,10.20
2019-03-28T17:07:52.681Z,9.63
2019-03-28T17:10:55.676Z,8.87
2019-03-28T17:13:27.483Z,9.43
2019-03-28T17:15:58.921Z,9.63
2019-03-28T17:18:31.234Z,10.83
2019-03-28T17:21:03.181Z,10.63
2019-03-28T17:23:34.556Z,11.47
2019-03-28T17:26:06.418Z,11.30
2019-03-28T17:28:38.063Z,12.27
2019-03-28T17:31:09.297Z,15.13
2019-03-28T17:33:40.805Z,15.90
2019-03-28T17:36:12.776Z,34.27
2019-03-28T17:38:44.242Z,29.77
2019-03-28T17:41:17.823Z,28.43
2019-03-28T17:43:49.276Z,40.83
2019-03-28T17:46:21.924Z,18.93
2019-03-28T17:48:53.270Z,14.97
2019-03-28T17:51:24.773Z,13.70
2019-03-28T17:53:56.390Z,14.53
2019-03-28T17:56:28.888Z,13.97
2019-03-28T17:59:00.157Z,11.50
2019-03-28T18:01:31.212Z,13.17
2019-03-28T18:04:02.546Z,13.87
2019-03-28T18:06:34.911Z,13.60
2019-03-28T18:09:08.134Z,16.13
2019-03-28T18:11:39.654Z,17.00
2019-03-28T18:14:12.203Z,16.83
2019-03-28T18:16:43.195Z,18.33
2019-03-28T18:19:16.215Z,21.10
2019-03-28T18:21:47.786Z,24.20
2019-03-28T18:24:18.992Z,24.17
2019-03-28T18:26:50.188Z,29.80
2019-03-28T18:29:21.835Z,28.13
2019-03-28T18:31:53.199Z,28.07
2019-03-28T18:34:24.666Z,27.90
2019-03-28T18:36:55.949Z,30.27
2019-03-28T18:39:27.270Z,30.93
2019-03-28T18:41:58.627Z,31.83
2019-03-28T18:44:29.929Z,38.33
2019-03-28T18:47:01.336Z,40.60
2019-03-28T18:49:32.996Z,42.30
2019-03-28T18:52:07.245Z,35.77
2019-03-28T18:54:37.683Z,41.63
2019-03-28T18:57:08.923Z,41.80
2019-03-28T18:59:40.171Z,62.33
2019-03-28T19:02:11.417Z,51.63
2019-03-28T19:04:42.499Z,54.27
2019-03-28T19:07:13.880Z,49.27
2019-03-28T19:09:45.288Z,43.43
2019-03-28T19:12:19.897Z,42.43
2019-03-28T19:14:51.161Z,46.10
2019-03-28T19:17:24.392Z,45.83
2019-03-28T19:19:59.207Z,54.30
2019-03-28T19:22:28.778Z,51.60
2019-03-28T19:25:00.985Z,40.00
2019-03-28T19:27:32.538Z,40.07
2019-03-28T19:30:04.485Z,44.53
2019-03-28T19:32:35.753Z,46.57
2019-03-28T19:35:08.171Z,46.60
2019-03-28T19:37:40.007Z,44.17
2019-03-28T19:40:13.027Z,40.97
2019-03-28T19:42:44.408Z,41.37
2019-03-28T19:45:19.190Z,50.30
2019-03-28T19:47:50.401Z,45.27
2019-03-28T19:50:29.461Z,44.53
2019-03-28T19:53:00.960Z,37.87
2019-03-28T19:55:32.453Z,46.33
2019-03-28T19:58:04.858Z,42.60
2019-03-28T20:00:37.022Z,47.90
2019-03-28T20:03:08.272Z,55.03
2019-03-28T20:05:47.986Z,69.53
2019-03-28T20:08:16.437Z,53.07
2019-03-28T20:10:47.832Z,49.13
2019-03-28T20:13:19.275Z,47.67
2019-03-28T20:15:50.805Z,47.97
2019-03-28T20:18:23.151Z,44.37
2019-03-28T20:20:55.815Z,47.67
2019-03-28T20:23:27.452Z,44.57
2019-03-28T20:25:59.001Z,48.63
2019-03-28T20:28:30.680Z,44.37
2019-03-28T20:31:01.864Z,44.03
2019-03-28T20:33:33.270Z,48.37
2019-03-28T20:36:29.968Z,53.03
2019-03-28T20:38:39.066Z,47.83
2019-03-28T20:41:12.314Z,47.07
2019-03-28T20:43:44.550Z,46.60
2019-03-28T20:46:15.825Z,45.33
2019-03-28T20:48:47.929Z,45.23
2019-03-28T20:51:24.473Z,44.73
2019-03-28T20:53:54.423Z,51.33
2019-03-28T20:56:32.509Z,47.40
2019-03-28T20:59:04.076Z,49.60
2019-03-28T21:01:38.484Z,49.93
2019-03-28T21:04:09.534Z,47.83
2019-03-28T21:06:41.400Z,51.60
2019-03-28T21:09:12.549Z,49.87
2019-03-28T21:11:43.670Z,52.73
2019-03-28T21:14:15.139Z,50.63
2019-03-28T21:16:46.260Z,50.30
2019-03-28T21:19:18.951Z,51.17
2019-03-28T21:21:50.605Z,54.93
2019-03-28T21:24:22.200Z,55.83
2019-03-28T21:26:53.471Z,61.57
2019-03-28T21:29:27.079Z,56.93
2019-03-28T21:31:58.437Z,52.17
2019-03-28T21:34:29.923Z,65.60
2019-03-28T21:37:01.094Z,61.93
2019-03-28T21:39:32.486Z,58.03
2019-03-28T21:42:06.962Z,57.70
2019-03-28T21:44:37.789Z,58.00
2019-03-28T21:47:09.443Z,55.50
2019-03-28T21:49:40.624Z,54.53
2019-03-28T21:52:11.991Z,54.50
2019-03-28T21:54:43.247Z,58.10
2019-03-28T21:57:14.804Z,58.27
2019-03-28T21:59:46.448Z,63.60
2019-03-28T22:02:17.553Z,64.27
2019-03-28T22:04:49.020Z,60.07
2019-03-28T22:07:20.127Z,60.77
2019-03-28T22:09:51.585Z,58.37
2019-03-28T22:12:23.051Z,55.73
2019-03-28T22:14:54.395Z,61.23
2019-03-28T22:17:27.039Z,63.00
2019-03-28T22:19:58.634Z,68.30
2019-03-28T22:22:29.885Z,68.87
2019-03-28T22:25:01.559Z,64.13
2019-03-28T22:27:33.688Z,62.90
2019-03-28T22:30:05.518Z,67.80
2019-03-28T22:32:37.550Z,60.73
2019-03-28T22:35:09.075Z,63.77
2019-03-28T22:37:40.233Z,65.57
2019-03-28T22:40:12.232Z,62.83
2019-03-28T22:42:43.386Z,69.43
2019-03-28T22:45:15.074Z,73.03
2019-03-28T22:47:46.401Z,70.10
2019-03-28T22:50:17.440Z,67.60
2019-03-28T22:52:48.763Z,67.20
2019-03-28T22:55:19.861Z,66.90
2019-03-28T22:57:54.030Z,67.07
2019-03-28T23:00:39.655Z,67.03
2019-03-28T23:03:12.400Z,65.07
2019-03-28T23:05:43.716Z,64.47
2019-03-28T23:08:14.786Z,62.90
2019-03-28T23:10:46.055Z,65.00
2019-03-28T23:13:17.155Z,66.80
2019-03-28T23:15:50.080Z,63.83
2019-03-28T23:18:21.589Z,69.70
2019-03-28T23:20:52.629Z,61.70
2019-03-28T23:23:23.659Z,68.70
2019-03-28T23:25:54.638Z,61.27
2019-03-28T23:28:25.779Z,68.03
2019-03-28T23:30:56.856Z,69.10
2019-03-28T23:33:28.053Z,66.97
2019-03-28T23:35:59.381Z,66.73
2019-03-28T23:38:30.555Z,64.83
2019-03-28T23:41:01.824Z,66.97
2019-03-28T23:43:33.027Z,60.37
2019-03-28T23:46:05.237Z,63.47
2019-03-28T23:48:36.592Z,60.83
2019-03-28T23:51:07.796Z,70.70
2019-03-28T23:53:38.976Z,71.13
2019-03-28T23:56:10.764Z,69.07
2019-03-28T23:58:42.179Z,69.80
